EBOS METAR and TAF | Updated Today

EBOS METAR

Ostend-Bruges International Airport

Observation time: 32 min. ago

EBOS 052020Z 04009KT 9999 FEW020 05/03 Q1044 NOSIG

Need help? Read our tutorial on how to read METARs or read the parsed version below.

Ostend-Bruges International Airport (EBOS) METAR

  • Weather conditions on Sun, 05 Feb 2023 20:20:00 +0000 (32 min. ago):
  • Present conditions: Dry
  • Clouds: A few at 610 meters
  • Visibility: Greater than 10 km
  • Wind: 40 degrees at 9 knots
  • Temperature: 5 celsius
  • Dew point: 3 celsius
  • Pressure: 1044 millibars
  • Remarks: None


Useful to know...

EBOS TAF

Ostend-Bruges International Airport

TAF EBOS 051720Z 0518/0624 02009KT 9999 FEW025 PROB30 TEMPO 0604/0608 1200 MIFG
Observation time: 3:32 hr. ago
Need help? Read our tutorial on how to read TAFs or read the parsed version below.

Parsed version of TAF for Ostend-Bruges International Airport (EBOS)

  • From 05 February at 18:00 UTC, to day 06 of the month at 24:00 UTC
  • Clouds: A few at 762 meters
  • Visibility: Greater than 10 km
  • Wind: 20 degrees at 9
  • Expected to arise temporarily, from 06 February at 04:00 UTC, to day 06 of the month at 08:00 UTC
    Probability of 30%
  • Visibility: 1200 meters
  • Other: Shallow fog